Time;durP1;ratioP1;P1;durP2;ratioP2;P2;SDS_P1;SDS_P2;PMS_P1;PMS_P2;Temp;Humidity;BMP_temperature;BMP_pressure;BME280_temperature;BME280_humidity;BME280_pressure;Samples;Min_cycle;Max_cycle;Signal;HPM_P1;HPM_P2
2022/05/19 00:02:03;;;;;;;1.35;0.90;;;;;;;25.40;48.86;99597.19;5071760;28;20045;-71
2022/05/19 00:04:32;;;;;;;1.65;1.00;;;;;;;25.37;48.66;99594.41;5053292;28;20447;-71
2022/05/19 00:07:00;;;;;;;1.40;0.90;;;;;;;25.37;48.56;99600.00;5071331;28;20087;-72
2022/05/19 00:09:26;;;;;;;1.35;1.05;;;;;;;25.37;48.72;99602.81;5071559;28;20041;-71
2022/05/19 00:11:54;;;;;;;1.55;1.02;;;;;;;25.35;48.76;99606.00;5071411;28;20131;-71
2022/05/19 00:14:20;;;;;;;1.38;0.90;;;;;;;25.35;48.96;99596.78;5071340;28;20052;-71
2022/05/19 00:16:46;;;;;;;1.70;1.10;;;;;;;25.37;48.75;99597.22;5071306;28;20373;-71
2022/05/19 00:19:12;;;;;;;1.83;1.10;;;;;;;25.35;49.02;99602.41;5070879;28;20045;-71
2022/05/19 00:21:39;;;;;;;1.85;1.13;;;;;;;25.35;49.10;99602.41;5071268;28;20048;-71
2022/05/19 00:24:05;;;;;;;1.67;1.13;;;;;;;25.33;48.91;99607.59;5071397;28;20929;-71
2022/05/19 00:26:30;;;;;;;1.80;1.00;;;;;;;25.32;48.85;99603.22;5070898;28;20461;-71
2022/05/19 00:28:56;;;;;;;1.98;1.25;;;;;;;25.32;48.78;99601.22;5071089;28;20599;-71
2022/05/19 00:31:21;;;;;;;1.70;1.15;;;;;;;25.33;49.09;99599.22;5071105;28;20126;-72
2022/05/19 00:33:47;;;;;;;1.63;1.00;;;;;;;25.31;48.95;99593.22;5071016;28;20068;-71
2022/05/19 00:36:16;;;;;;;1.30;0.90;;;;;;;25.32;48.96;99594.81;5052975;28;20052;-71
2022/05/19 00:38:42;;;;;;;1.80;1.10;;;;;;;25.33;48.52;99590.81;5070726;28;20036;-71
2022/05/19 00:41:09;;;;;;;1.40;1.00;;;;;;;25.33;48.51;99597.22;5070776;28;20102;-71
2022/05/19 00:43:37;;;;;;;1.45;1.10;;;;;;;25.34;48.58;99600.81;5070957;28;20503;-71
2022/05/19 00:46:08;;;;;;;1.88;1.10;;;;;;;25.30;48.80;99591.63;5071042;28;20044;-71
2022/05/19 00:48:44;;;;;;;1.60;1.00;;;;;;;25.30;48.87;99592.41;5070551;28;20059;-71
2022/05/19 00:51:10;;;;;;;1.50;1.02;;;;;;;25.28;48.81;99603.19;5070888;28;20044;-71
2022/05/19 00:53:47;;;;;;;1.63;1.15;;;;;;;25.28;48.65;99603.19;5052871;28;20032;-71
2022/05/19 00:56:25;;;;;;;1.55;1.00;;;;;;;25.27;48.51;99603.59;5070812;28;20045;-72
2022/05/19 00:59:07;;;;;;;1.85;1.08;;;;;;;25.30;48.54;99614.03;5070564;28;20083;-72
2022/05/19 01:01:35;;;;;;;1.40;0.90;;;;;;;25.29;48.98;99615.19;5070457;28;20462;-71
2022/05/19 01:04:19;;;;;;;1.10;0.80;;;;;;;25.28;48.73;99610.81;5070612;28;20271;-71
2022/05/19 01:06:47;;;;;;;1.65;1.00;;;;;;;25.27;49.12;99618.41;5070074;28;20459;-71
2022/05/19 01:09:14;;;;;;;1.45;0.90;;;;;;;25.27;49.00;99615.59;5069766;28;20590;-71
2022/05/19 01:11:41;;;;;;;1.13;0.82;;;;;;;25.27;48.86;99609.22;5070403;28;20127;-71
2022/05/19 01:14:07;;;;;;;1.58;1.00;;;;;;;25.24;49.13;99608.81;5070630;28;20040;-71
2022/05/19 01:16:33;;;;;;;1.25;0.90;;;;;;;25.28;49.02;99619.19;5070141;28;20094;-71
2022/05/19 01:18:59;;;;;;;1.40;0.90;;;;;;;25.26;49.08;99614.00;5069880;28;20127;-71
2022/05/19 01:21:28;;;;;;;1.50;0.90;;;;;;;25.27;49.06;99617.59;5070011;28;20045;-71
2022/05/19 01:24:12;;;;;;;1.42;0.95;;;;;;;25.23;49.01;99612.81;5070337;28;20052;-71
2022/05/19 01:26:50;;;;;;;1.60;1.02;;;;;;;25.26;48.97;99611.22;5070060;28;20447;-71
2022/05/19 01:29:19;;;;;;;1.67;0.93;;;;;;;25.27;49.21;99614.81;5070039;28;20515;-71
2022/05/19 01:31:59;;;;;;;1.67;1.00;;;;;;;25.25;49.12;99607.63;5070047;28;20041;-71
2022/05/19 01:34:29;;;;;;;1.70;1.10;;;;;;;25.23;49.28;99604.41;5070043;28;20067;-72
2022/05/19 01:36:55;;;;;;;1.38;0.93;;;;;;;25.23;48.93;99610.03;5070113;28;20048;-71
2022/05/19 01:39:24;;;;;;;1.30;0.95;;;;;;;25.23;48.94;99609.22;5069787;28;20044;-71
2022/05/19 01:42:18;;;;;;;1.52;1.00;;;;;;;25.20;48.98;99604.41;5069774;28;20085;-72
2022/05/19 01:45:11;;;;;;;1.75;1.08;;;;;;;25.21;49.13;99609.59;5069997;28;20060;-71
2022/05/19 01:47:42;;;;;;;;;;;;;;;25.25;49.09;99612.41;5070332;28;20053;-72
2022/05/19 01:50:28;;;;;;;1.40;1.00;;;;;;;25.22;48.91;99613.22;5069845;28;20420;-71
2022/05/19 01:53:03;;;;;;;1.23;0.90;;;;;;;25.21;49.10;99617.19;5069817;28;20508;-71
2022/05/19 01:56:00;;;;;;;1.70;1.00;;;;;;;25.20;49.14;99629.59;5069921;28;20048;-71
2022/05/19 01:58:37;;;;;;;1.58;1.00;;;;;;;25.19;49.18;99625.22;4988031;28;20050;-72
2022/05/19 02:01:06;;;;;;;1.20;0.90;;;;;;;25.16;48.91;99629.63;4987764;28;20055;-72
2022/05/19 02:03:44;;;;;;;1.40;0.90;;;;;;;25.16;48.79;99632.41;4988256;28;20062;-71
2022/05/19 02:06:25;;;;;;;1.65;1.10;;;;;;;25.17;48.95;99628.41;4988038;28;20061;-71
2022/05/19 02:08:54;;;;;;;1.40;0.95;;;;;;;25.15;48.79;99630.03;4988200;28;20461;-72
2022/05/19 02:11:26;;;;;;;1.30;1.00;;;;;;;25.16;48.86;99629.63;4983868;28;20137;-71
2022/05/19 02:13:54;;;;;;;1.25;0.77;;;;;;;25.16;48.82;99635.22;5004373;28;20221;-72
2022/05/19 02:16:21;;;;;;;1.33;0.80;;;;;;;25.17;48.64;99636.81;4988084;28;20051;-71
2022/05/19 02:18:49;;;;;;;1.80;1.15;;;;;;;25.17;48.79;99634.00;4987591;28;20469;-71
2022/05/19 02:21:17;;;;;;;2.30;1.25;;;;;;;25.16;48.56;99632.41;4987553;28;20038;-71
2022/05/19 02:23:43;;;;;;;1.60;1.05;;;;;;;25.16;48.79;99645.63;4971578;28;20046;-71
2022/05/19 02:26:09;;;;;;;1.70;1.00;;;;;;;25.17;48.57;99650.81;4987735;28;20046;-72
2022/05/19 02:28:42;;;;;;;1.42;1.02;;;;;;;25.13;48.40;99644.38;4987671;28;20245;-71
2022/05/19 02:31:08;;;;;;;1.70;1.08;;;;;;;25.13;48.78;99650.00;4987928;28;20090;-71
2022/05/19 02:33:34;;;;;;;1.58;1.00;;;;;;;25.13;48.49;99650.00;5012681;28;20040;-71
2022/05/19 02:36:01;;;;;;;1.50;0.80;;;;;;;25.15;48.73;99650.41;5068954;28;20044;-71
2022/05/19 02:38:26;;;;;;;2.08;0.88;;;;;;;25.14;48.63;99657.19;5069260;28;20048;-71
2022/05/19 02:40:52;;;;;;;1.58;1.02;;;;;;;25.13;48.78;99652.78;5068825;28;20453;-71
2022/05/19 02:43:18;;;;;;;1.52;1.00;;;;;;;25.11;48.50;99652.41;5069106;28;20063;-72
2022/05/19 02:45:45;;;;;;;1.80;0.90;;;;;;;25.12;48.73;99670.78;5069097;28;20040;-71
2022/05/19 02:48:12;;;;;;;2.40;1.10;;;;;;;25.10;48.66;99659.19;5068993;28;20373;-71
2022/05/19 02:50:39;;;;;;;1.27;0.90;;;;;;;25.11;48.67;99660.00;5068900;28;20052;-71
2022/05/19 02:53:05;;;;;;;1.77;0.90;;;;;;;25.11;48.86;99668.41;5068747;28;20504;-72
2022/05/19 02:55:31;;;;;;;1.63;1.02;;;;;;;25.13;48.76;99669.59;5068718;28;20048;-72
2022/05/19 02:57:56;;;;;;;1.40;1.00;;;;;;;25.13;48.69;99666.00;5068920;28;20413;-71
2022/05/19 03:00:23;;;;;;;1.42;1.00;;;;;;;25.11;48.90;99662.78;5068385;28;20044;-71
2022/05/19 03:02:49;;;;;;;1.52;0.93;;;;;;;25.09;48.64;99666.00;5068895;28;20044;-71
2022/05/19 03:05:20;;;;;;;1.67;1.00;;;;;;;25.08;48.58;99658.81;5069004;28;20404;-71
2022/05/19 03:07:45;;;;;;;1.33;0.93;;;;;;;25.08;48.46;99670.00;5066882;28;20048;-71
2022/05/19 03:10:11;;;;;;;1.48;0.98;;;;;;;25.08;48.83;99675.59;5068743;28;20048;-71
2022/05/19 03:12:36;;;;;;;1.38;0.98;;;;;;;25.07;48.80;99665.56;5068617;28;20416;-71
2022/05/19 03:15:03;;;;;;;1.55;0.93;;;;;;;25.08;48.78;99672.78;5069008;28;20055;-71
2022/05/19 03:17:29;;;;;;;1.58;0.98;;;;;;;25.06;48.54;99672.38;5068718;28;20082;-71
2022/05/19 03:19:55;;;;;;;1.38;0.98;;;;;;;25.04;48.79;99673.97;5068933;28;20080;-71
2022/05/19 03:22:22;;;;;;;1.52;0.90;;;;;;;25.04;48.80;99674.78;5073879;28;20037;-71
2022/05/19 03:24:48;;;;;;;1.55;1.00;;;;;;;25.01;48.69;99674.75;5077312;28;20052;-72
2022/05/19 03:27:14;;;;;;;1.80;1.10;;;;;;;25.03;48.64;99678.75;5076448;28;20040;-71
2022/05/19 03:29:40;;;;;;;1.60;1.00;;;;;;;25.03;48.79;99684.34;5072943;28;20144;-71
2022/05/19 03:32:06;;;;;;;1.48;1.02;;;;;;;25.03;49.02;99689.16;5071205;28;20043;-71
2022/05/19 03:34:31;;;;;;;1.30;1.00;;;;;;;25.02;48.68;99684.75;5072058;28;20044;-71
2022/05/19 03:37:02;;;;;;;1.60;1.00;;;;;;;25.03;48.74;99694.75;5072182;28;20052;-71
2022/05/19 03:39:27;;;;;;;1.50;0.95;;;;;;;25.02;48.75;99693.94;5071920;28;20172;-71
2022/05/19 03:41:52;;;;;;;1.23;0.90;;;;;;;25.02;48.86;99699.53;5071707;28;20455;-71
2022/05/19 03:44:18;;;;;;;1.40;1.10;;;;;;;24.99;48.91;99691.94;5071884;28;20044;-71
2022/05/19 03:46:43;;;;;;;1.48;1.10;;;;;;;24.97;48.92;99703.53;5053423;28;20089;-72
2022/05/19 03:49:09;;;;;;;1.50;1.00;;;;;;;24.96;48.94;99710.31;5071675;28;20504;-71
2022/05/19 03:51:35;;;;;;;1.52;1.05;;;;;;;24.96;48.95;99701.91;5071670;28;20045;-71
2022/05/19 03:54:01;;;;;;;1.65;1.10;;;;;;;24.97;48.74;99708.31;5071803;28;20043;-71
2022/05/19 03:56:26;;;;;;;1.30;0.90;;;;;;;24.97;48.99;99713.91;5071832;28;20045;-72
2022/05/19 03:58:52;;;;;;;1.67;1.00;;;;;;;24.95;48.98;99711.53;5071747;28;20041;-71
2022/05/19 04:01:19;;;;;;;1.17;0.80;;;;;;;24.94;48.74;99709.91;5071002;28;20094;-71
2022/05/19 04:03:45;;;;;;;1.88;0.95;;;;;;;24.94;49.02;99706.31;5071599;28;20575;-71
2022/05/19 04:06:11;;;;;;;1.65;1.10;;;;;;;24.94;48.87;99720.31;5071406;28;20053;-71
2022/05/19 04:08:37;;;;;;;1.60;1.00;;;;;;;24.92;48.92;99717.09;5071532;28;20131;-71
2022/05/19 04:11:02;;;;;;;1.48;1.00;;;;;;;24.93;48.64;99715.88;5071379;28;20045;-71
2022/05/19 04:13:28;;;;;;;1.50;1.00;;;;;;;24.94;49.00;99715.53;5071437;28;20064;-71
2022/05/19 04:15:54;;;;;;;1.80;0.95;;;;;;;24.95;49.05;99727.50;5071480;28;20037;-71
2022/05/19 04:18:19;;;;;;;1.70;1.00;;;;;;;24.94;48.95;99725.91;5053264;28;20049;-71
2022/05/19 04:20:44;;;;;;;1.92;1.00;;;;;;;24.94;49.00;99728.72;5071097;28;20505;-72
2022/05/19 04:23:11;;;;;;;1.60;1.08;;;;;;;24.92;49.06;99729.09;5071179;28;20068;-71
2022/05/19 04:25:37;;;;;;;2.08;1.10;;;;;;;24.94;49.13;99742.69;5071172;28;20544;-71
2022/05/19 04:28:04;;;;;;;4.40;1.20;;;;;;;24.94;49.10;99742.69;5070955;28;20084;-71
2022/05/19 04:30:29;;;;;;;1.05;0.80;;;;;;;24.95;49.12;99741.50;5070901;28;20048;-71
2022/05/19 04:32:55;;;;;;;1.33;1.02;;;;;;;24.94;49.16;99737.91;5070985;28;20041;-71
2022/05/19 04:35:21;;;;;;;1.23;0.80;;;;;;;24.93;49.26;99738.28;5071266;28;20451;-71
2022/05/19 04:37:47;;;;;;;1.77;0.95;;;;;;;24.93;48.99;99744.69;5070862;28;20357;-71
2022/05/19 04:40:14;;;;;;;1.55;1.02;;;;;;;24.94;49.21;99751.91;5070835;28;20044;-71
2022/05/19 04:42:40;;;;;;;2.22;1.17;;;;;;;24.96;49.21;99757.09;5070476;28;20044;-71
2022/05/19 04:45:07;;;;;;;1.40;1.00;;;;;;;24.95;49.00;99761.09;5070819;28;20056;-71
2022/05/19 04:47:32;;;;;;;1.45;1.05;;;;;;;24.96;49.31;99759.88;5070603;28;20048;-71
2022/05/19 04:49:57;;;;;;;1.83;1.13;;;;;;;24.97;49.07;99758.69;5070941;28;20051;-71
2022/05/19 04:52:23;;;;;;;1.40;0.90;;;;;;;24.97;49.03;99758.69;5070694;28;20087;-71
2022/05/19 04:54:49;;;;;;;1.30;1.00;;;;;;;24.97;48.98;99767.09;5070567;28;20070;-71
2022/05/19 04:57:15;;;;;;;1.85;1.10;;;;;;;24.96;49.19;99763.50;5070950;28;20080;-71
2022/05/19 04:59:42;;;;;;;1.75;1.00;;;;;;;24.98;49.36;99763.88;5070731;28;20138;-71
2022/05/19 05:02:09;;;;;;;1.70;1.20;;;;;;;24.97;49.57;99772.69;5070124;28;20159;-71
2022/05/19 05:04:35;;;;;;;2.28;1.15;;;;;;;24.96;49.61;99773.88;5070435;28;20060;-71
2022/05/19 05:07:00;;;;;;;1.35;1.00;;;;;;;24.94;49.71;99770.69;5070279;28;20055;-71
2022/05/19 05:09:26;;;;;;;1.83;1.20;;;;;;;24.95;49.90;99777.88;5070567;28;20063;-71
2022/05/19 05:11:52;;;;;;;1.40;1.10;;;;;;;24.96;49.95;99782.28;5070332;28;20044;-71
2022/05/19 05:14:17;;;;;;;2.28;1.20;;;;;;;24.96;49.88;99779.47;5070474;28;20045;-70
2022/05/19 05:16:46;;;;;;;2.10;1.30;;;;;;;24.98;50.04;99789.06;5070288;28;20105;-70
2022/05/19 05:19:11;;;;;;;4.50;1.25;;;;;;;24.97;50.13;99793.06;5070305;28;20123;-70
2022/05/19 05:21:36;;;;;;;3.15;1.23;;;;;;;24.99;50.28;99799.06;5069945;28;20564;-70
2022/05/19 05:24:02;;;;;;;3.95;1.20;;;;;;;24.96;50.26;99797.06;5070199;28;20069;-70
2022/05/19 05:26:27;;;;;;;2.47;1.10;;;;;;;24.96;50.33;99793.47;5070074;28;20470;-70
2022/05/19 05:28:53;;;;;;;1.73;1.30;;;;;;;24.97;50.15;99803.47;5069900;28;20131;-70
2022/05/19 05:31:19;;;;;;;2.45;1.20;;;;;;;24.97;50.17;99801.47;5070301;28;20057;-70
2022/05/19 05:33:44;;;;;;;3.08;1.20;;;;;;;24.97;50.08;99804.25;5070016;28;20052;-70
2022/05/19 05:36:10;;;;;;;2.10;1.08;;;;;;;24.96;50.12;99802.66;5069884;28;20044;-70
2022/05/19 05:38:35;;;;;;;3.35;1.48;;;;;;;24.96;50.26;99804.66;5069950;28;20119;-70
2022/05/19 05:41:02;;;;;;;2.35;1.20;;;;;;;24.97;50.35;99812.66;5069381;28;20052;-70
2022/05/19 05:43:28;;;;;;;1.33;1.00;;;;;;;24.97;50.17;99831.44;5051061;28;20127;-71
2022/05/19 05:46:02;;;;;;;1.98;1.17;;;;;;;24.99;50.39;99826.25;5061654;28;20550;-70
2022/05/19 05:48:27;;;;;;;2.15;1.13;;;;;;;24.98;50.46;99816.25;5049280;28;20065;-70
2022/05/19 05:50:53;;;;;;;2.92;1.13;;;;;;;24.98;50.44;99822.66;5069959;28;20411;-71
2022/05/19 05:53:18;;;;;;;2.20;1.38;;;;;;;24.99;50.51;99817.88;5069354;28;20080;-70
2022/05/19 05:55:43;;;;;;;1.83;1.10;;;;;;;25.00;50.60;99825.06;5069655;28;20051;-70
2022/05/19 05:58:10;;;;;;;1.92;1.10;;;;;;;24.99;50.62;99829.06;5051775;28;20403;-70
2022/05/19 06:00:38;;;;;;;1.77;1.08;;;;;;;24.98;50.80;99821.84;5069491;28;20052;-70
2022/05/19 06:03:03;;;;;;;1.50;1.10;;;;;;;25.05;50.38;99827.50;5069311;28;20045;-70
2022/05/19 06:05:29;;;;;;;1.85;1.10;;;;;;;25.13;50.25;99825.53;5069764;28;20084;-71
2022/05/19 06:07:54;;;;;;;1.60;1.05;;;;;;;25.15;50.02;99823.97;5069319;28;20075;-70
2022/05/19 06:10:20;;;;;;;1.63;1.20;;;;;;;25.16;50.15;99822.78;5069612;28;20041;-70
2022/05/19 06:12:45;;;;;;;1.77;1.10;;;;;;;25.17;50.24;99824.38;5069488;28;20090;-70
2022/05/19 06:15:13;;;;;;;1.75;1.10;;;;;;;25.13;50.06;99825.53;5069572;28;20048;-70
2022/05/19 06:17:42;;;;;;;1.70;1.20;;;;;;;25.16;50.21;99828.38;5069383;28;20045;-70
2022/05/19 06:20:10;;;;;;;1.30;0.98;;;;;;;25.19;50.17;99830.38;5067721;28;20048;-70
2022/05/19 06:22:36;;;;;;;1.95;1.30;;;;;;;25.19;50.37;99829.56;5053587;28;20139;-68
2022/05/19 06:25:01;;;;;;;3.00;1.10;;;;;;;25.27;50.45;99828.38;5058833;28;20037;-67
2022/05/19 06:27:27;;;;;;;1.67;1.17;;;;;;;25.32;50.04;99836.41;5049210;28;20409;-67
2022/05/19 06:29:52;;;;;;;2.15;1.10;;;;;;;25.31;50.40;99828.41;5060543;28;20075;-67
2022/05/19 06:32:18;;;;;;;1.88;1.10;;;;;;;25.27;50.22;99822.00;5063468;28;20090;-68
2022/05/19 06:34:43;;;;;;;3.47;1.40;;;;;;;25.33;50.25;99826.00;5056378;28;20065;-67
2022/05/19 06:37:08;;;;;;;6.38;3.22;;;;;;;25.40;50.45;99826.03;5058779;28;20112;-67
2022/05/19 06:39:34;;;;;;;16.65;11.65;;;;;;;25.38;50.46;99822.84;5059848;28;20037;-67
2022/05/19 06:42:02;;;;;;;14.98;10.65;;;;;;;25.39;50.42;99821.63;5058708;28;20041;-67
2022/05/19 06:44:34;;;;;;;17.15;11.75;;;;;;;25.39;50.60;99830.03;5055617;28;20405;-67
2022/05/19 06:47:00;;;;;;;14.02;8.15;;;;;;;25.43;50.65;99831.66;5054900;28;20127;-67
2022/05/19 06:49:26;;;;;;;7.80;4.60;;;;;;;25.43;50.76;99831.66;5052811;28;21662;-67
2022/05/19 06:51:51;;;;;;;10.25;4.50;;;;;;;25.39;51.05;99825.22;5058583;28;20072;-67
2022/05/19 06:54:18;;;;;;;6.28;3.47;;;;;;;25.40;50.77;99821.22;5061461;28;20079;-67
2022/05/19 06:56:43;;;;;;;11.82;3.38;;;;;;;25.43;51.16;99825.22;5056020;28;20148;-67
2022/05/19 06:59:09;;;;;;;5.15;2.70;;;;;;;25.40;51.27;99823.22;5063927;28;20040;-67
2022/05/19 07:01:35;;;;;;;9.02;2.70;;;;;;;25.46;51.25;99813.25;5061265;28;20033;-67
2022/05/19 07:04:00;;;;;;;5.05;2.33;;;;;;;25.40;51.30;99823.22;5060799;28;20419;-68
2022/05/19 07:06:26;;;;;;;9.07;2.30;;;;;;;25.37;51.68;99810.03;5055662;28;20033;-67
2022/05/19 07:08:51;;;;;;;5.20;2.20;;;;;;;25.46;51.21;99813.25;5039770;28;20053;-67
2022/05/19 07:11:26;;;;;;;6.35;1.80;;;;;;;25.50;51.20;99808.44;5049991;28;20037;-66
2022/05/19 07:14:01;;;;;;;2.38;1.80;;;;;;;25.50;50.96;99814.03;5056497;28;20236;-67
2022/05/19 07:16:28;;;;;;;3.22;1.52;;;;;;;25.50;50.69;99820.47;5058871;28;20045;-68
2022/05/19 07:20:43;;;;;;;4.15;1.88;;;;;;;25.49;50.86;99812.44;5055207;28;20906;-67
2022/05/19 07:21:43;;;;;;;2.80;1.65;;;;;;;25.51;50.67;99801.66;5062328;28;20573;-68
2022/05/19 07:24:15;;;;;;;4.13;1.70;;;;;;;25.48;50.71;99805.25;5054396;28;20047;-65
2022/05/19 07:26:43;;;;;;;3.47;1.55;;;;;;;25.50;50.58;99816.84;5038070;28;20405;-65
2022/05/19 07:29:08;;;;;;;2.45;1.58;;;;;;;25.49;50.23;99820.84;5052858;28;20049;-65
2022/05/19 07:31:34;;;;;;;3.33;1.73;;;;;;;25.48;50.25;99808.03;5039675;28;20056;-66
2022/05/19 07:33:59;;;;;;;4.97;1.80;;;;;;;25.48;50.56;99816.44;5054576;28;20987;-66
2022/05/19 07:36:25;;;;;;;4.32;1.42;;;;;;;25.52;50.29;99820.88;5049928;28;20135;-65
2022/05/19 07:38:50;;;;;;;9.85;1.50;;;;;;;25.60;50.50;99802.06;5059315;28;20126;-65
2022/05/19 07:41:16;;;;;;;2.35;1.25;;;;;;;25.64;49.89;99811.25;5066241;28;20045;-65
2022/05/19 07:43:41;;;;;;;2.97;1.40;;;;;;;25.68;50.04;99806.47;5061578;28;20123;-65
2022/05/19 07:46:08;;;;;;;3.40;1.45;;;;;;;25.69;50.33;99810.06;5056375;28;20049;-69
2022/05/19 07:48:35;;;;;;;2.63;1.38;;;;;;;25.72;50.50;99809.31;5062961;28;20416;-68
2022/05/19 07:51:02;;;;;;;4.50;2.03;;;;;;;25.75;50.15;99812.13;5049600;28;20063;-68
2022/05/19 07:53:28;;;;;;;2.38;1.30;;;;;;;25.69;50.60;99807.28;5046637;28;20041;-71
2022/05/19 07:55:55;;;;;;;2.95;1.40;;;;;;;25.70;50.38;99806.88;5034339;28;20139;-69
2022/05/19 07:58:21;;;;;;;2.80;1.40;;;;;;;25.75;50.31;99802.91;5041001;28;20044;-68
2022/05/19 08:00:47;;;;;;;2.90;1.30;;;;;;;25.76;50.49;99805.31;5058907;28;20037;-68
2022/05/19 08:03:13;;;;;;;2.45;1.52;;;;;;;25.81;50.40;99806.94;5060138;28;20049;-68
2022/05/19 08:05:39;;;;;;;4.72;1.27;;;;;;;25.82;50.19;99802.13;5056619;28;20101;-68
2022/05/19 08:08:05;;;;;;;2.60;1.35;;;;;;;25.84;50.07;99796.91;5063301;28;20044;-70
2022/05/19 08:10:30;;;;;;;2.67;1.40;;;;;;;25.84;50.23;99791.31;5060263;28;20060;-70
2022/05/19 08:15:46;;;;;;;4.13;1.73;;;;;;;25.85;50.27;99792.91;5059571;28;20048;-68
2022/05/19 08:18:23;;;;;;;2.20;1.27;;;;;;;25.82;49.77;99788.91;5055832;28;20142;-67
2022/05/19 08:20:51;;;;;;;3.35;1.40;;;;;;;25.84;50.04;99789.28;5055329;28;20052;-69
2022/05/19 08:23:19;;;;;;;2.40;1.40;;;;;;;25.87;49.63;99794.13;5056763;28;20037;-69
2022/05/19 08:25:46;;;;;;;9.70;1.70;;;;;;;26.16;48.68;99782.88;5058292;28;20041;-70
2022/05/19 08:28:14;;;;;;;5.13;1.42;;;;;;;26.47;48.19;99782.03;5061030;28;20147;-70
2022/05/19 08:30:45;;;;;;;3.33;1.38;;;;;;;26.69;47.22;99790.41;5057830;28;20047;-70
2022/05/19 08:33:11;;;;;;;2.55;1.30;;;;;;;26.83;46.77;99782.72;5062243;28;20456;-69
2022/05/19 08:35:36;;;;;;;3.33;1.25;;;;;;;26.96;46.43;99785.88;5067034;28;20512;-65
2022/05/19 08:38:02;;;;;;;2.58;1.35;;;;;;;27.16;45.69;99775.00;5062062;28;20049;-64
2022/05/19 08:40:28;;;;;;;3.47;1.50;;;;;;;27.19;45.72;99776.97;5062707;28;20433;-65
2022/05/19 08:42:58;;;;;;;3.55;1.35;;;;;;;27.28;45.68;99774.50;5058320;28;20504;-65
2022/05/19 08:45:42;;;;;;;5.00;2.35;;;;;;;27.41;45.11;99767.19;5062308;28;20049;-65
2022/05/19 08:48:19;;;;;;;5.70;1.92;;;;;;;27.58;44.88;99765.47;5058755;28;20048;-65
2022/05/19 08:51:08;;;;;;;4.13;1.90;;;;;;;27.67;44.63;99773.44;5060256;28;20098;-65
2022/05/19 08:53:40;;;;;;;4.47;1.92;;;;;;;27.76;44.29;99767.38;5029299;28;20051;-70
2022/05/19 08:56:23;;;;;;;4.78;2.05;;;;;;;27.81;44.10;99761.31;5053469;28;20094;-72
2022/05/19 08:59:17;;;;;;;2.60;1.52;;;;;;;27.47;44.73;99769.56;5065558;28;20481;-71
2022/05/19 09:01:52;;;;;;;2.63;1.50;;;;;;;27.18;45.38;99757.72;5069849;28;20048;-71
2022/05/19 09:04:51;;;;;;;1.85;1.40;;;;;;;27.02;45.77;99749.75;5062134;28;20037;-71
2022/05/19 09:10:18;;;;;;;3.25;1.65;;;;;;;26.73;46.24;99749.09;5059609;28;20052;-71
2022/05/19 09:12:45;;;;;;;4.38;1.48;;;;;;;26.66;46.31;99749.94;5063268;28;20044;-71
2022/05/19 09:15:11;;;;;;;3.45;1.88;;;;;;;26.62;46.21;99743.53;5063511;28;20852;-71
2022/05/19 09:17:41;;;;;;;2.03;1.27;;;;;;;26.47;46.83;99747.59;5063441;28;20123;-71
2022/05/19 09:20:11;;;;;;;2.50;1.63;;;;;;;26.41;46.92;99740.78;5046161;28;20106;-71
2022/05/19 09:22:37;;;;;;;3.03;1.63;;;;;;;26.34;46.90;99745.19;5046175;28;20047;-71
2022/05/19 09:25:07;;;;;;;3.28;1.58;;;;;;;26.30;46.92;99738.00;5065570;28;20045;-72
2022/05/19 09:27:36;;;;;;;2.95;1.42;;;;;;;26.33;46.75;99735.16;5063113;28;20385;-71
2022/05/19 09:30:04;;;;;;;2.38;1.23;;;;;;;26.27;46.70;99731.16;5060435;28;20123;-72
2022/05/19 09:32:34;;;;;;;2.40;1.50;;;;;;;26.27;47.10;99728.38;5067614;28;20048;-72
2022/05/19 09:35:15;;;;;;;2.78;1.40;;;;;;;26.21;47.03;99727.19;5057794;28;20044;-72
2022/05/19 09:37:43;;;;;;;3.42;1.38;;;;;;;26.23;46.89;99727.59;5047204;28;20501;-72
2022/05/19 09:40:12;;;;;;;2.28;1.20;;;;;;;26.32;47.02;99732.78;5059865;28;20033;-72
2022/05/19 09:42:55;;;;;;;3.47;1.60;;;;;;;26.32;46.92;99729.97;5054758;28;20040;-72
2022/05/19 09:45:23;;;;;;;2.35;1.50;;;;;;;26.29;47.01;99725.97;5059107;28;20078;-73
2022/05/19 09:47:52;;;;;;;2.33;1.30;;;;;;;26.33;46.54;99723.94;5058023;28;20056;-72
2022/05/19 09:50:23;;;;;;;2.55;1.40;;;;;;;26.30;46.99;99721.97;5032569;28;20044;-72
2022/05/19 09:52:49;;;;;;;2.63;1.45;;;;;;;26.29;46.92;99720.38;5056378;28;20040;-71
2022/05/19 09:55:21;;;;;;;2.50;1.40;;;;;;;26.28;46.56;99713.13;5044828;28;20084;-72
2022/05/19 09:57:49;;;;;;;2.53;1.42;;;;;;;26.28;46.66;99713.13;5060333;28;20045;-72
2022/05/19 10:00:34;;;;;;;2.35;1.42;;;;;;;26.26;46.56;99715.56;5058983;28;20543;-71
2022/05/19 10:03:01;;;;;;;2.72;1.58;;;;;;;26.32;46.86;99718.75;5064272;28;20074;-71
2022/05/19 10:05:39;;;;;;;2.92;1.58;;;;;;;26.28;46.93;99707.53;5060331;28;20041;-71
2022/05/19 10:08:12;;;;;;;2.55;1.40;;;;;;;26.22;47.02;99703.56;5067316;28;20462;-71
2022/05/19 10:11:18;;;;;;;2.13;1.33;;;;;;;26.25;46.89;99702.75;5056357;28;20485;-71
2022/05/19 10:13:56;;;;;;;2.08;1.23;;;;;;;26.30;47.04;99704.34;5055613;28;20444;-75
2022/05/19 10:16:35;;;;;;;4.72;1.60;;;;;;;26.30;47.16;99701.53;5056542;28;20455;-77
2022/05/19 10:19:03;;;;;;;4.18;1.60;;;;;;;26.29;47.17;99700.75;5052380;28;20045;-75
2022/05/19 10:21:54;;;;;;;3.67;1.42;;;;;;;26.30;46.70;99702.34;5053467;28;20459;-76
2022/05/19 10:24:46;;;;;;;4.93;1.60;;;;;;;26.26;46.80;99692.31;5051107;28;20457;-76
2022/05/19 10:33:43;;;;;;;2.25;1.50;;;;;;;26.18;47.17;99691.56;5059516;28;20533;-70
2022/05/19 10:36:20;;;;;;;2.40;1.50;;;;;;;26.20;47.10;99688.34;5062191;28;20055;-69
2022/05/19 10:39:09;;;;;;;2.47;1.40;;;;;;;26.17;46.83;99678.75;5067257;28;20423;-70
2022/05/19 10:41:53;;;;;;;3.05;1.48;;;;;;;26.13;47.10;99677.94;5045993;28;20511;-70
2022/05/19 10:44:34;;;;;;;2.45;1.60;;;;;;;26.17;46.86;99675.13;5071579;28;20044;-70
2022/05/19 10:47:22;;;;;;;2.85;1.52;;;;;;;26.24;46.71;99673.09;5068999;28;20060;-71
2022/05/19 10:50:19;;;;;;;8.65;2.42;;;;;;;26.21;47.20;99662.69;5047109;28;20453;-71
2022/05/19 10:53:10;;;;;;;5.32;2.20;;;;;;;26.20;47.48;99660.28;5041183;28;20131;-71
2022/05/19 10:55:54;;;;;;;5.57;1.98;;;;;;;26.33;46.86;99653.03;5044868;28;20040;-71
2022/05/19 10:58:32;;;;;;;3.70;1.90;;;;;;;26.39;46.94;99647.81;5043818;28;20043;-71
2022/05/19 11:01:22;;;;;;;2.88;1.95;;;;;;;26.39;46.86;99631.81;5037826;28;20068;-71
2022/05/19 11:03:58;;;;;;;5.22;1.70;;;;;;;26.44;46.44;99639.81;5064576;28;20044;-70
2022/05/19 11:06:54;;;;;;;4.38;2.10;;;;;;;26.39;46.44;99630.97;5056746;28;20415;-75
2022/05/19 11:09:42;;;;;;;3.42;1.50;;;;;;;26.43;46.80;99634.59;5060217;28;20048;-76
2022/05/19 11:12:16;;;;;;;4.80;2.00;;;;;;;26.45;46.69;99637.81;5065674;28;20508;-76
2022/05/19 11:15:09;;;;;;;3.45;1.55;;;;;;;26.42;46.30;99633.78;5063015;28;20040;-77
2022/05/19 11:17:52;;;;;;;2.28;1.50;;;;;;;26.44;45.78;99625.00;5039807;28;20539;-70
2022/05/19 11:20:22;;;;;;;2.53;1.52;;;;;;;26.49;46.16;99627.34;5068370;28;20044;-70
2022/05/19 11:22:53;;;;;;;2.97;1.70;;;;;;;26.49;46.06;99632.94;5055952;28;20473;-70
2022/05/19 11:28:27;;;;;;;2.75;1.55;;;;;;;26.45;46.69;99618.16;5063465;28;20078;-69
2022/05/19 11:31:02;;;;;;;3.85;1.45;;;;;;;26.54;46.45;99624.91;5055579;28;20044;-65
2022/05/19 11:33:35;;;;;;;1.98;1.40;;;;;;;26.56;46.03;99624.50;5056075;28;20059;-65
2022/05/19 11:36:08;;;;;;;2.40;1.70;;;;;;;26.58;45.95;99619.31;5053905;28;20037;-65
2022/05/19 11:38:33;;;;;;;2.40;1.50;;;;;;;26.54;46.53;99616.50;5063288;28;20589;-65
2022/05/19 11:41:19;;;;;;;4.65;1.45;;;;;;;26.57;46.71;99617.69;5065147;28;20048;-70
2022/05/19 11:43:55;;;;;;;4.20;1.50;;;;;;;26.58;46.95;99619.31;5059782;28;20471;-69
2022/05/19 11:46:30;;;;;;;6.10;1.48;;;;;;;26.58;46.60;99610.88;5041217;28;20044;-70
2022/05/19 11:57:40;;;;;;;;;;;;;;;26.61;47.59;99624.09;5060049;28;20717;-73
2022/05/19 12:00:08;;;;;;;3.25;1.80;;;;;;;26.52;48.18;99626.53;5037417;28;20453;-69
2022/05/19 12:02:48;;;;;;;2.60;1.70;;;;;;;26.49;48.95;99630.16;5058617;28;20052;-70
2022/05/19 12:05:59;;;;;;;3.95;1.63;;;;;;;26.54;48.73;99612.91;5045446;28;20048;-70
2022/05/19 12:08:51;;;;;;;2.63;1.63;;;;;;;26.54;48.80;99619.31;5023450;28;20045;-68
2022/05/19 12:11:29;;;;;;;5.15;1.58;;;;;;;26.59;49.11;99616.09;5050560;28;20103;-71
2022/05/19 12:14:27;;;;;;;9.57;1.80;;;;;;;26.61;49.45;99619.25;5059600;28;20048;-69